createdAt,value
2022-11-09T00:01:48.876Z,91.25
2022-11-09T00:06:52.919Z,90.89
2022-11-09T00:11:54.649Z,91.25
2022-11-09T00:16:56.657Z,91.07
2022-11-09T00:21:58.062Z,91.10
2022-11-09T00:26:59.489Z,90.93
2022-11-09T00:32:03.869Z,91.32
2022-11-09T00:37:05.286Z,91.51
2022-11-09T00:42:07.308Z,91.25
2022-11-09T00:47:08.711Z,91.74
2022-11-09T00:52:10.085Z,91.96
2022-11-09T00:57:13.285Z,92.09
2022-11-09T01:02:18.538Z,92.06
2022-11-09T01:07:20.006Z,91.64
2022-11-09T01:12:22.172Z,92.05
2022-11-09T01:17:26.358Z,91.98
2022-11-09T01:22:29.741Z,92.27
2022-11-09T01:27:32.748Z,92.36
2022-11-09T01:32:34.442Z,92.51
2022-11-09T01:37:35.842Z,92.14
2022-11-09T01:42:37.919Z,92.05
2022-11-09T01:47:39.359Z,91.99
2022-11-09T01:52:44.579Z,91.58
2022-11-09T01:57:56.206Z,90.60
2022-11-09T02:03:05.528Z,91.29
2022-11-09T02:08:12.537Z,91.65
2022-11-09T02:13:17.322Z,91.23
2022-11-09T02:18:19.685Z,91.43
2022-11-09T02:23:22.097Z,91.38
2022-11-09T02:28:26.321Z,90.99
2022-11-09T02:33:28.012Z,91.24
2022-11-09T02:38:30.023Z,91.23
2022-11-09T02:43:31.441Z,91.61
2022-11-09T02:48:34.728Z,91.47
2022-11-09T02:53:36.289Z,91.19
2022-11-09T02:58:37.787Z,91.36
2022-11-09T03:03:39.414Z,91.15
2022-11-09T03:08:40.842Z,91.02
2022-11-09T03:13:42.801Z,91.32
2022-11-09T03:18:44.289Z,91.81
2022-11-09T03:23:46.047Z,91.99
2022-11-09T03:28:48.124Z,91.49
2022-11-09T03:33:49.607Z,91.44
2022-11-09T03:38:51.101Z,91.32
2022-11-09T03:43:52.608Z,90.98
2022-11-09T03:48:53.968Z,91.50
2022-11-09T03:53:55.404Z,91.53
2022-11-09T03:58:56.775Z,91.93
2022-11-09T04:03:58.326Z,91.91
2022-11-09T04:08:59.683Z,92.41
2022-11-09T04:14:01.160Z,91.71
2022-11-09T04:19:02.535Z,92.07
2022-11-09T04:24:04.186Z,92.33
2022-11-09T04:29:05.548Z,92.63
2022-11-09T04:34:06.911Z,92.39
2022-11-09T04:39:08.489Z,92.49
2022-11-09T04:44:09.869Z,92.62
2022-11-09T04:49:11.280Z,92.90
2022-11-09T04:54:14.317Z,92.66
2022-11-09T04:59:15.673Z,92.84
2022-11-09T05:04:17.185Z,93.03
2022-11-09T05:09:18.816Z,92.51
2022-11-09T05:14:20.196Z,92.86
2022-11-09T05:19:21.593Z,92.53
2022-11-09T05:24:22.984Z,92.41
2022-11-09T05:29:24.364Z,92.01
2022-11-09T05:34:25.750Z,91.63
2022-11-09T05:39:27.131Z,91.83
2022-11-09T05:44:28.547Z,91.96
2022-11-09T05:49:29.926Z,92.03
2022-11-09T05:54:31.634Z,92.44
2022-11-09T05:59:33.017Z,92.26
2022-11-09T06:04:34.427Z,92.11
2022-11-09T06:09:35.916Z,92.37
2022-11-09T06:14:37.310Z,91.91
2022-11-09T06:19:38.731Z,91.88
2022-11-09T06:24:40.207Z,92.22
2022-11-09T06:29:41.597Z,92.68
2022-11-09T06:34:44.211Z,92.60
2022-11-09T06:39:47.223Z,92.94
2022-11-09T06:44:48.945Z,92.54
2022-11-09T06:49:50.366Z,92.92
2022-11-09T06:54:51.744Z,92.90
2022-11-09T06:59:53.159Z,92.32
2022-11-09T07:04:54.736Z,92.15
2022-11-09T07:09:57.295Z,92.12
2022-11-09T07:14:58.659Z,92.74
2022-11-09T07:20:00.607Z,92.90
2022-11-09T07:25:02.108Z,93.04
2022-11-09T07:30:04.333Z,92.51
2022-11-09T07:35:06.597Z,92.03
2022-11-09T07:40:08.855Z,92.04
2022-11-09T07:45:10.433Z,91.54
2022-11-09T07:50:11.922Z,91.37
2022-11-09T07:55:13.304Z,90.90
2022-11-09T08:00:18.723Z,91.12
2022-11-09T08:05:23.065Z,90.82
2022-11-09T08:10:26.643Z,90.75
2022-11-09T08:15:28.634Z,90.48
2022-11-09T08:20:30.969Z,90.23
2022-11-09T08:25:34.258Z,90.32
2022-11-09T08:30:35.727Z,90.18
2022-11-09T08:35:37.421Z,90.30
2022-11-09T08:40:38.835Z,90.11
2022-11-09T08:45:41.318Z,89.27
2022-11-09T08:50:42.754Z,89.64
2022-11-09T08:55:49.213Z,90.04
2022-11-09T09:00:51.355Z,90.05
2022-11-09T09:05:52.725Z,89.87
2022-11-09T09:10:54.122Z,90.05
2022-11-09T09:15:55.555Z,89.92
2022-11-09T09:20:57.026Z,89.97
2022-11-09T09:25:58.838Z,89.57
2022-11-09T09:31:01.474Z,89.56
2022-11-09T09:36:03.117Z,91.50
2022-11-09T09:41:06.652Z,90.39
2022-11-09T09:46:18.579Z,89.46
2022-11-09T09:51:32.262Z,89.40
2022-11-09T09:56:37.435Z,90.26
2022-11-09T10:01:42.180Z,89.65
2022-11-09T10:06:46.382Z,89.79
2022-11-09T10:12:08.529Z,89.75
2022-11-09T10:17:25.026Z,90.33
2022-11-09T10:22:39.017Z,89.69
2022-11-09T10:27:51.702Z,89.79
2022-11-09T10:32:57.695Z,92.07
2022-11-09T10:37:59.070Z,91.25
2022-11-09T10:43:02.953Z,90.66
2022-11-09T10:48:35.975Z,90.10
2022-11-09T10:54:21.076Z,90.60
2022-11-09T10:59:51.036Z,90.10
2022-11-09T11:05:12.617Z,90.36
2022-11-09T11:10:32.470Z,90.39
2022-11-09T11:15:52.466Z,91.00
2022-11-09T11:21:19.670Z,90.49
2022-11-09T11:26:47.204Z,90.88
2022-11-09T11:32:15.446Z,91.19
2022-11-09T11:37:45.968Z,90.50
2022-11-09T11:43:33.517Z,90.87
2022-11-09T11:49:00.861Z,90.52
2022-11-09T11:54:32.864Z,90.43
2022-11-09T12:00:08.942Z,90.64
2022-11-09T12:05:55.192Z,90.07
2022-11-09T12:11:40.103Z,89.84
2022-11-09T12:17:03.170Z,89.94
2022-11-09T12:22:43.717Z,89.72
2022-11-09T12:28:34.948Z,88.92
2022-11-09T12:34:01.756Z,89.55
2022-11-09T12:39:36.185Z,89.14
2022-11-09T12:45:05.145Z,89.43
2022-11-09T12:50:26.752Z,89.57
2022-11-09T12:55:55.372Z,90.08
2022-11-09T13:01:33.608Z,88.93
2022-11-09T13:07:03.084Z,88.52
2022-11-09T13:12:42.902Z,87.14
2022-11-09T13:18:24.949Z,86.17
2022-11-09T13:24:03.708Z,86.72
2022-11-09T13:29:40.572Z,86.17
2022-11-09T13:35:01.888Z,87.07
2022-11-09T13:40:31.146Z,86.45
2022-11-09T13:45:58.469Z,87.21
2022-11-09T13:51:46.875Z,87.18
2022-11-09T13:57:07.128Z,88.34
2022-11-09T14:02:27.470Z,88.29
2022-11-09T14:07:47.460Z,88.10
2022-11-09T14:13:21.098Z,88.25
2022-11-09T14:18:58.791Z,87.47
2022-11-09T14:24:34.994Z,88.16
2022-11-09T14:29:57.284Z,88.09
2022-11-09T14:35:32.738Z,87.81
2022-11-09T14:40:54.003Z,88.26
2022-11-09T14:46:20.307Z,87.92
2022-11-09T14:51:40.495Z,88.50
2022-11-09T14:57:00.876Z,88.63
2022-11-09T15:02:23.396Z,88.14
2022-11-09T15:07:47.457Z,88.39
2022-11-09T15:13:07.795Z,88.47
2022-11-09T15:18:34.545Z,87.99
2022-11-09T15:24:06.150Z,88.35
2022-11-09T15:29:41.738Z,88.62
2022-11-09T15:35:02.026Z,88.57
2022-11-09T15:40:24.936Z,88.82
2022-11-09T15:45:44.920Z,89.73
2022-11-09T15:51:04.975Z,89.33
2022-11-09T15:56:25.092Z,89.86
2022-11-09T16:01:45.890Z,89.90
2022-11-09T16:07:08.060Z,90.24
2022-11-09T16:12:30.429Z,90.23
2022-11-09T16:17:52.578Z,91.38
2022-11-09T16:23:12.992Z,91.24
2022-11-09T16:28:33.193Z,90.95
2022-11-09T16:33:53.102Z,90.80
2022-11-09T16:39:18.060Z,90.14
2022-11-09T16:44:43.869Z,90.12
2022-11-09T16:51:06.510Z,89.63
2022-11-09T16:56:38.943Z,90.21
2022-11-09T17:02:04.065Z,90.44
2022-11-09T17:21:21.312Z,90.50
2022-11-09T17:32:27.487Z,91.15
2022-11-09T17:38:25.353Z,90.82
2022-11-09T17:43:48.779Z,90.98
2022-11-09T17:54:51.509Z,91.84
2022-11-09T18:00:22.758Z,91.72
2022-11-09T18:05:45.070Z,91.58
2022-11-09T18:11:05.516Z,91.77
2022-11-09T18:16:25.689Z,91.40
2022-11-09T18:21:47.125Z,91.19
2022-11-09T18:27:07.485Z,91.08
2022-11-09T18:32:27.542Z,91.13
2022-11-09T18:37:48.631Z,91.08
2022-11-09T18:43:08.662Z,91.18
2022-11-09T18:48:29.093Z,90.71
2022-11-09T18:53:49.117Z,91.15
2022-11-09T18:59:12.733Z,90.83
2022-11-09T19:04:33.281Z,90.81
2022-11-09T19:09:56.481Z,90.92
2022-11-09T19:15:17.304Z,90.84
2022-11-09T19:26:07.808Z,91.17
2022-11-09T19:31:28.987Z,91.21
2022-11-09T19:36:49.359Z,91.08
2022-11-09T19:42:09.830Z,91.23
2022-11-09T19:47:29.775Z,91.40
2022-11-09T19:52:49.601Z,91.58
2022-11-09T19:58:10.165Z,91.60
2022-11-09T20:03:30.465Z,91.85
2022-11-09T20:08:51.947Z,91.88
2022-11-09T20:14:12.986Z,92.41
2022-11-09T20:19:33.076Z,92.21
2022-11-09T20:24:53.138Z,92.50
2022-11-09T20:30:13.702Z,92.75
2022-11-09T20:35:33.889Z,92.95
2022-11-09T20:40:58.576Z,93.11
2022-11-09T20:46:21.481Z,92.54
2022-11-09T20:51:41.510Z,94.12
2022-11-09T20:57:01.701Z,93.85
2022-11-09T21:02:21.728Z,93.51
2022-11-09T21:07:41.905Z,93.89
2022-11-09T21:13:01.767Z,93.48
2022-11-09T21:18:22.197Z,93.70
2022-11-09T21:24:01.993Z,93.45
2022-11-09T21:29:42.729Z,93.68
2022-11-09T21:35:03.738Z,93.82
2022-11-09T21:40:24.637Z,93.84
2022-11-09T21:45:49.073Z,94.14
2022-11-09T21:51:09.351Z,93.93
2022-11-09T21:56:29.348Z,94.22
2022-11-09T22:01:49.750Z,93.94
2022-11-09T22:07:10.016Z,94.06
2022-11-09T22:12:48.857Z,94.19
2022-11-09T22:18:29.049Z,94.42
2022-11-09T22:23:49.352Z,94.27
2022-11-09T22:29:09.371Z,94.43
2022-11-09T22:34:29.198Z,94.37
2022-11-09T22:39:49.053Z,94.26
2022-11-09T22:45:09.452Z,94.54
2022-11-09T22:50:29.400Z,94.22
2022-11-09T22:55:56.872Z,94.17
2022-11-09T23:01:20.118Z,94.39
2022-11-09T23:06:40.043Z,94.66
2022-11-09T23:12:00.383Z,94.86
2022-11-09T23:17:39.087Z,94.45
2022-11-09T23:22:59.171Z,94.36
2022-11-09T23:28:19.712Z,94.01
2022-11-09T23:33:40.106Z,94.11
2022-11-09T23:38:59.970Z,94.14
2022-11-09T23:44:19.826Z,93.71
2022-11-09T23:49:39.988Z,94.19
2022-11-09T23:55:00.232Z,94.02
